Time;durP1;ratioP1;P1;durP2;ratioP2;P2;SDS_P1;SDS_P2;PMS_P1;PMS_P2;Temp;Humidity;BMP_temperature;BMP_pressure;BME280_temperature;BME280_humidity;BME280_pressure;Samples;Min_cycle;Max_cycle;Signal;HPM_P1;HPM_P2
2021/05/07 00:00:36;;;;;;;2.97;0.90;;;;;;;;;;5135848;27;20047;-67
2021/05/07 00:03:03;;;;;;;2.33;1.00;;;;;;;;;;5138245;27;20050;-68
2021/05/07 00:05:29;;;;;;;1.05;0.70;;;;;;;;;;5149319;27;20047;-67
2021/05/07 00:07:55;;;;;;;3.17;1.08;;;;;;;;;;5135470;27;20054;-67
2021/05/07 00:10:22;;;;;;;1.50;0.70;;;;;;;;;;5135248;27;20047;-68
2021/05/07 00:12:49;;;;;;;3.13;0.80;;;;;;;;;;5134993;27;20046;-67
2021/05/07 00:15:15;;;;;;;2.90;0.80;;;;;;;;;;5135346;27;20051;-67
2021/05/07 00:17:41;;;;;;;1.00;0.60;;;;;;;;;;5134762;27;20043;-68
2021/05/07 00:20:08;;;;;;;2.17;1.17;;;;;;;;;;5135355;27;20094;-68
2021/05/07 00:22:34;;;;;;;1.88;0.75;;;;;;;;;;5134552;27;20484;-67
2021/05/07 00:25:00;;;;;;;2.25;0.80;;;;;;;;;;5134880;27;20076;-67
2021/05/07 00:27:26;;;;;;;1.75;0.85;;;;;;;;;;5134855;27;20054;-68
2021/05/07 00:29:52;;;;;;;1.85;0.80;;;;;;;;;;5135099;27;20518;-67
2021/05/07 00:32:18;;;;;;;2.55;1.00;;;;;;;;;;5131152;27;20047;-67
2021/05/07 00:34:44;;;;;;;1.23;0.80;;;;;;;;;;5134348;28;20096;-67
2021/05/07 00:37:10;;;;;;;2.17;0.63;;;;;;;;;;5134934;28;20062;-67
2021/05/07 00:39:36;;;;;;;1.35;0.90;;;;;;;;;;5134533;28;20088;-67
2021/05/07 00:42:03;;;;;;;1.90;0.63;;;;;;;;;;5129835;28;20055;-67
2021/05/07 00:44:29;;;;;;;1.58;0.65;;;;;;;;;;5134660;28;20047;-68
2021/05/07 00:46:57;;;;;;;0.65;0.50;;;;;;;;;;5134311;28;20487;-68
2021/05/07 00:49:23;;;;;;;3.13;0.70;;;;;;;;;;5133847;28;20152;-68
2021/05/07 00:51:49;;;;;;;1.30;0.60;;;;;;;;;;5133153;28;20050;-69
2021/05/07 00:54:15;;;;;;;3.67;0.90;;;;;;;;;;5114075;28;20052;-68
2021/05/07 00:56:41;;;;;;;2.33;0.90;;;;;;;;;;5132557;28;20058;-69
2021/05/07 00:59:07;;;;;;;2.28;0.77;;;;;;;;;;5134849;28;20043;-68
2021/05/07 01:01:33;;;;;;;1.58;0.82;;;;;;;;;;5136204;27;20115;-68
2021/05/07 01:04:00;;;;;;;2.75;0.90;;;;;;;;;;5135246;28;20054;-68
2021/05/07 01:06:26;;;;;;;2.38;0.75;;;;;;;;;;5134404;28;20069;-68
2021/05/07 01:08:52;;;;;;;2.17;0.90;;;;;;;;;;5134695;28;20046;-68
2021/05/07 01:11:18;;;;;;;3.35;1.00;;;;;;;;;;5133221;28;20066;-68
2021/05/07 01:13:44;;;;;;;2.47;1.20;;;;;;;;;;5134776;28;20464;-68
2021/05/07 01:16:10;;;;;;;2.25;1.13;;;;;;;;;;5134282;28;20055;-68
2021/05/07 01:18:36;;;;;;;2.35;0.82;;;;;;;;;;5134641;28;20051;-68
2021/05/07 01:21:04;;;;;;;2.30;1.10;;;;;;;;;;5134286;27;20078;-68
2021/05/07 01:23:30;;;;;;;3.08;0.90;;;;;;;;;;5117826;28;20488;-68
2021/05/07 01:25:56;;;;;;;2.63;1.10;;;;;;;;;;5130246;27;20058;-67
2021/05/07 01:28:22;;;;;;;1.33;0.90;;;;;;;;;;5138421;27;20172;-68
2021/05/07 01:30:49;;;;;;;5.25;1.48;;;;;;;;;;5142844;27;20714;-67
2021/05/07 01:33:16;;;;;;;3.90;1.40;;;;;;;;;;5146304;27;20058;-67
2021/05/07 01:35:43;;;;;;;2.80;1.38;;;;;;;;;;5139477;27;20092;-67
2021/05/07 01:38:12;;;;;;;2.08;1.00;;;;;;;;;;5148193;27;20043;-67
2021/05/07 01:40:39;;;;;;;4.68;1.20;;;;;;;;;;5138642;27;20453;-67
2021/05/07 01:43:06;;;;;;;4.30;1.35;;;;;;;;;;5128599;27;20051;-67
2021/05/07 01:45:33;;;;;;;2.53;1.20;;;;;;;;;;5128984;27;20043;-67
2021/05/07 01:48:00;;;;;;;3.35;1.10;;;;;;;;;;5137727;27;20143;-67
2021/05/07 01:50:28;;;;;;;3.08;1.20;;;;;;;;;;5137568;27;20059;-67
2021/05/07 01:52:55;;;;;;;2.17;0.90;;;;;;;;;;5136950;27;20055;-67
2021/05/07 01:55:23;;;;;;;3.40;1.10;;;;;;;;;;5136820;27;20078;-67
2021/05/07 01:57:49;;;;;;;2.72;1.73;;;;;;;;;;5137788;27;20096;-67
2021/05/07 02:00:17;;;;;;;3.42;1.00;;;;;;;;;;5138877;27;20549;-67
2021/05/07 02:02:43;;;;;;;4.00;1.52;;;;;;;;;;5136584;27;20039;-66
2021/05/07 02:05:11;;;;;;;3.35;1.30;;;;;;;;;;5133959;27;20046;-67
2021/05/07 02:07:37;;;;;;;2.60;1.05;;;;;;;;;;5137912;27;20046;-67
2021/05/07 02:10:06;;;;;;;3.88;1.38;;;;;;;;;;5137768;27;20039;-67
2021/05/07 02:12:33;;;;;;;7.18;1.50;;;;;;;;;;5137689;27;20055;-67
2021/05/07 02:14:59;;;;;;;3.10;1.15;;;;;;;;;;5137503;27;20043;-67
2021/05/07 02:17:25;;;;;;;3.90;1.10;;;;;;;;;;5138393;27;20054;-67
2021/05/07 02:19:51;;;;;;;4.30;1.20;;;;;;;;;;5137962;27;20065;-67
2021/05/07 02:22:17;;;;;;;5.03;1.30;;;;;;;;;;5136987;27;20096;-67
2021/05/07 02:24:43;;;;;;;5.28;1.20;;;;;;;;;;5137693;27;20051;-67
2021/05/07 02:27:09;;;;;;;4.85;1.33;;;;;;;;;;5137293;27;20043;-67
2021/05/07 02:29:36;;;;;;;3.13;0.85;;;;;;;;;;5138311;27;20050;-67
2021/05/07 02:32:02;;;;;;;5.10;1.00;;;;;;;;;;5136122;27;20399;-67
2021/05/07 02:34:28;;;;;;;3.13;1.05;;;;;;;;;;5138391;27;20055;-67
2021/05/07 02:36:54;;;;;;;1.73;0.80;;;;;;;;;;5138489;27;20095;-67
2021/05/07 02:39:20;;;;;;;2.30;0.80;;;;;;;;;;5138316;27;20046;-67
2021/05/07 02:41:46;;;;;;;3.17;1.33;;;;;;;;;;5136401;27;20047;-67
2021/05/07 02:44:12;;;;;;;1.58;0.80;;;;;;;;;;5135898;27;20062;-67
2021/05/07 02:46:39;;;;;;;2.50;0.98;;;;;;;;;;5124325;27;20039;-67
2021/05/07 02:49:06;;;;;;;2.25;0.98;;;;;;;;;;5137693;27;20095;-66
2021/05/07 02:51:32;;;;;;;1.45;0.75;;;;;;;;;;5136641;27;20054;-67
2021/05/07 02:53:58;;;;;;;4.55;1.02;;;;;;;;;;5137130;27;20047;-67
2021/05/07 02:56:24;;;;;;;2.95;1.00;;;;;;;;;;5137313;27;20391;-67
2021/05/07 02:58:50;;;;;;;4.30;1.80;;;;;;;;;;5136376;27;20057;-67
2021/05/07 03:01:16;;;;;;;2.28;1.13;;;;;;;;;;5136688;27;20070;-67
2021/05/07 03:03:43;;;;;;;2.30;1.10;;;;;;;;;;5135896;27;20400;-67
2021/05/07 03:06:09;;;;;;;2.13;1.02;;;;;;;;;;5136033;27;20051;-67
2021/05/07 03:08:35;;;;;;;2.28;1.02;;;;;;;;;;5135859;27;20043;-67
2021/05/07 03:11:01;;;;;;;8.02;1.63;;;;;;;;;;5135387;27;20055;-66
2021/05/07 03:13:27;;;;;;;2.97;1.52;;;;;;;;;;5136582;27;20051;-66
2021/05/07 03:15:53;;;;;;;4.95;1.25;;;;;;;;;;5135361;27;20497;-66
2021/05/07 03:18:20;;;;;;;2.55;0.80;;;;;;;;;;5135651;27;20055;-67
2021/05/07 03:20:47;;;;;;;3.03;1.08;;;;;;;;;;5135217;27;20054;-66
2021/05/07 03:23:14;;;;;;;2.70;0.98;;;;;;;;;;5135476;27;20047;-66
2021/05/07 03:25:40;;;;;;;3.95;1.13;;;;;;;;;;5135233;27;20043;-66
2021/05/07 03:28:07;;;;;;;2.13;0.73;;;;;;;;;;5135710;27;20061;-66
2021/05/07 03:30:33;;;;;;;4.05;0.90;;;;;;;;;;5135334;27;20043;-67
2021/05/07 03:32:59;;;;;;;3.25;1.00;;;;;;;;;;5134817;27;20079;-66
2021/05/07 03:35:25;;;;;;;3.63;0.90;;;;;;;;;;5135404;27;20046;-67
2021/05/07 03:37:52;;;;;;;3.03;0.88;;;;;;;;;;5136456;27;20050;-67
2021/05/07 03:40:19;;;;;;;0.77;0.47;;;;;;;;;;5135716;27;20523;-67
2021/05/07 03:42:45;;;;;;;1.70;0.50;;;;;;;;;;5134510;27;20137;-67
2021/05/07 03:45:12;;;;;;;1.35;0.60;;;;;;;;;;5132697;27;20051;-67
2021/05/07 03:47:38;;;;;;;0.85;0.43;;;;;;;;;;5135843;27;20059;-67
2021/05/07 03:50:05;;;;;;;1.98;0.73;;;;;;;;;;5135890;27;20054;-67
2021/05/07 03:52:31;;;;;;;1.33;0.40;;;;;;;;;;5134923;27;20102;-67
2021/05/07 03:54:58;;;;;;;1.30;0.60;;;;;;;;;;5135510;27;20475;-67
2021/05/07 03:57:25;;;;;;;1.45;0.50;;;;;;;;;;5135916;27;20055;-67
2021/05/07 03:59:51;;;;;;;0.95;0.50;;;;;;;;;;5136037;27;20479;-67
2021/05/07 04:02:17;;;;;;;1.88;0.65;;;;;;;;;;5137478;27;20074;-67
2021/05/07 04:04:44;;;;;;;1.65;0.75;;;;;;;;;;5143471;27;20488;-66
2021/05/07 04:07:10;;;;;;;0.93;0.52;;;;;;;;;;5144732;27;20077;-66
2021/05/07 04:09:39;;;;;;;2.80;0.50;;;;;;;;;;5144332;27;20058;-67
2021/05/07 04:12:16;;;;;;;1.55;0.60;;;;;;;;;;5136781;27;20075;-67
2021/05/07 04:14:42;;;;;;;1.25;0.50;;;;;;;;;;5144916;27;20047;-67
2021/05/07 04:17:08;;;;;;;0.63;0.40;;;;;;;;;;5142735;27;20616;-67
2021/05/07 04:19:33;;;;;;;2.88;0.55;;;;;;;;;;5144168;27;20050;-65
2021/05/07 04:21:59;;;;;;;1.30;0.52;;;;;;;;;;5140241;27;20540;-65
2021/05/07 04:24:25;;;;;;;1.00;0.45;;;;;;;;;;5141544;27;20048;-66
2021/05/07 04:26:53;;;;;;;1.25;0.32;;;;;;;;;;5141552;27;20829;-65
2021/05/07 04:29:21;;;;;;;1.83;0.68;;;;;;;;;;5131826;27;20153;-66
2021/05/07 04:31:47;;;;;;;1.13;0.50;;;;;;;;;;5136440;27;20043;-65
2021/05/07 04:34:13;;;;;;;1.85;0.60;;;;;;;;;;5139655;27;20048;-66
2021/05/07 04:36:39;;;;;;;1.17;0.60;;;;;;;;;;5132454;27;20047;-66
2021/05/07 04:39:06;;;;;;;1.92;0.70;;;;;;;;;;5133792;27;20107;-66
2021/05/07 04:41:32;;;;;;;2.70;0.82;;;;;;;;;;5134959;27;20061;-67
2021/05/07 04:43:58;;;;;;;1.35;0.68;;;;;;;;;;5134208;27;20047;-66
2021/05/07 04:46:25;;;;;;;2.65;0.80;;;;;;;;;;5132105;27;20236;-67
2021/05/07 04:48:51;;;;;;;2.88;0.88;;;;;;;;;;5138794;27;20047;-66
2021/05/07 04:51:17;;;;;;;1.52;0.68;;;;;;;;;;5143558;27;20399;-67
2021/05/07 04:53:46;;;;;;;3.50;0.65;;;;;;;;;;5144634;27;20051;-66
2021/05/07 04:56:12;;;;;;;1.33;0.90;;;;;;;;;;5142024;27;20043;-66
2021/05/07 04:58:38;;;;;;;1.75;0.70;;;;;;;;;;5138842;27;20089;-66
2021/05/07 05:01:04;;;;;;;0.85;0.60;;;;;;;;;;5137043;27;20047;-66
2021/05/07 05:03:31;;;;;;;3.00;0.85;;;;;;;;;;5140253;27;20043;-67
2021/05/07 05:05:57;;;;;;;2.30;0.80;;;;;;;;;;5139011;27;20047;-67
2021/05/07 05:08:24;;;;;;;3.25;0.93;;;;;;;;;;5139225;27;20475;-67
2021/05/07 05:10:54;;;;;;;1.30;0.70;;;;;;;;;;5145153;27;20787;-67
2021/05/07 05:13:20;;;;;;;5.38;1.00;;;;;;;;;;5138370;27;20051;-66
2021/05/07 05:15:48;;;;;;;1.10;0.45;;;;;;;;;;5138336;27;20126;-66
2021/05/07 05:18:24;;;;;;;2.53;0.55;;;;;;;;;;5138653;27;20441;-67
2021/05/07 05:20:52;;;;;;;1.17;0.80;;;;;;;;;;5137910;27;20107;-66
2021/05/07 05:23:18;;;;;;;2.20;0.90;;;;;;;;;;5138432;27;20047;-66
2021/05/07 05:25:44;;;;;;;1.02;0.70;;;;;;;;;;5137940;27;20053;-66
2021/05/07 05:28:10;;;;;;;1.27;0.88;;;;;;;;;;5147819;27;20085;-67
2021/05/07 05:30:36;;;;;;;2.88;1.15;;;;;;;;;;5138871;27;20072;-66
2021/05/07 05:33:03;;;;;;;5.78;1.20;;;;;;;;;;5137906;27;20070;-66
2021/05/07 05:35:29;;;;;;;1.88;0.82;;;;;;;;;;5143617;27;20054;-66
2021/05/07 05:37:56;;;;;;;2.60;0.93;;;;;;;;;;5138142;27;20047;-66
2021/05/07 05:40:22;;;;;;;1.30;0.70;;;;;;;;;;5138573;27;20051;-66
2021/05/07 05:42:48;;;;;;;1.52;0.90;;;;;;;;;;5137500;27;20057;-67
2021/05/07 05:45:15;;;;;;;4.18;1.08;;;;;;;;;;5136518;27;20415;-66
2021/05/07 05:47:40;;;;;;;1.40;0.82;;;;;;;;;;5123017;27;20080;-67
2021/05/07 05:50:08;;;;;;;2.05;1.20;;;;;;;;;;5134178;27;20499;-66
2021/05/07 05:52:34;;;;;;;1.88;1.05;;;;;;;;;;5135410;27;20050;-67
2021/05/07 05:55:01;;;;;;;5.13;1.70;;;;;;;;;;5140379;27;20476;-67
2021/05/07 05:57:27;;;;;;;4.30;1.20;;;;;;;;;;5137326;27;20066;-66
2021/05/07 05:59:53;;;;;;;2.40;1.00;;;;;;;;;;5141018;27;20475;-66
2021/05/07 06:02:19;;;;;;;3.95;1.27;;;;;;;;;;5140253;27;20042;-66
2021/05/07 06:04:45;;;;;;;2.65;1.20;;;;;;;;;;5137236;27;20058;-67
2021/05/07 06:07:11;;;;;;;2.65;1.40;;;;;;;;;;5134934;27;20091;-67
2021/05/07 06:09:37;;;;;;;3.13;1.50;;;;;;;;;;5137840;27;20099;-66
2021/05/07 06:12:07;;;;;;;2.33;1.40;;;;;;;;;;5136865;27;20047;-67
2021/05/07 06:14:33;;;;;;;3.00;1.60;;;;;;;;;;5144215;27;20050;-66
2021/05/07 06:16:59;;;;;;;1.88;1.20;;;;;;;;;;5141707;27;20403;-67
2021/05/07 06:19:25;;;;;;;3.58;1.38;;;;;;;;;;5138009;27;20039;-67
2021/05/07 06:21:51;;;;;;;2.30;1.42;;;;;;;;;;5135998;27;20043;-67
2021/05/07 06:24:17;;;;;;;2.90;1.58;;;;;;;;;;5138703;27;20451;-66
2021/05/07 06:26:43;;;;;;;2.33;1.52;;;;;;;;;;5136343;27;20047;-67
2021/05/07 06:29:10;;;;;;;2.33;1.40;;;;;;;;;;5135352;27;20437;-67
2021/05/07 06:31:36;;;;;;;1.65;1.13;;;;;;;;;;5135181;27;20047;-67
2021/05/07 06:34:02;;;;;;;2.78;1.25;;;;;;;;;;5135729;27;20043;-67
2021/05/07 06:36:29;;;;;;;5.45;2.80;;;;;;;;;;5134695;27;20047;-68
2021/05/07 06:38:55;;;;;;;4.97;1.88;;;;;;;;;;5131347;27;20076;-67
2021/05/07 06:41:21;;;;;;;9.52;3.65;;;;;;;;;;5134112;27;20051;-67
2021/05/07 06:43:48;;;;;;;6.55;2.83;;;;;;;;;;5133842;27;20047;-67
2021/05/07 06:46:15;;;;;;;4.25;1.58;;;;;;;;;;5129073;27;20059;-66
2021/05/07 06:48:41;;;;;;;3.80;1.17;;;;;;;;;;5127776;27;20760;-68
2021/05/07 06:51:07;;;;;;;2.97;1.33;;;;;;;;;;5134831;27;20053;-66
2021/05/07 06:53:33;;;;;;;2.30;1.45;;;;;;;;;;5134396;27;20039;-66
2021/05/07 06:55:59;;;;;;;1.40;0.80;;;;;;;;;;5135914;27;20059;-66
2021/05/07 06:58:25;;;;;;;1.45;0.70;;;;;;;;;;5135070;27;20056;-67
2021/05/07 07:00:51;;;;;;;0.85;0.57;;;;;;;;;;5135156;27;20093;-68
2021/05/07 07:03:18;;;;;;;1.00;0.40;;;;;;;;;;5135086;27;20046;-68
2021/05/07 07:05:44;;;;;;;2.08;0.70;;;;;;;;;;5134843;27;20059;-68
2021/05/07 07:08:10;;;;;;;1.02;0.57;;;;;;;;;;5132769;27;20072;-65
2021/05/07 07:10:37;;;;;;;1.10;0.43;;;;;;;;;;5130494;27;20039;-67
2021/05/07 07:13:03;;;;;;;1.40;0.57;;;;;;;;;;5131806;27;20071;-68
2021/05/07 07:15:29;;;;;;;1.10;0.70;;;;;;;;;;5133522;27;20056;-68
2021/05/07 07:17:55;;;;;;;2.13;0.43;;;;;;;;;;5135158;27;20059;-66
2021/05/07 07:20:22;;;;;;;1.65;0.40;;;;;;;;;;5134978;27;20038;-68
2021/05/07 07:22:48;;;;;;;1.10;0.35;;;;;;;;;;5134398;27;20047;-66
2021/05/07 07:25:14;;;;;;;0.30;0.20;;;;;;;;;;5135759;27;20047;-68
2021/05/07 07:27:40;;;;;;;1.33;0.38;;;;;;;;;;5136180;27;20043;-66
2021/05/07 07:30:07;;;;;;;0.75;0.50;;;;;;;;;;5135386;27;20035;-67
2021/05/07 07:32:33;;;;;;;0.57;0.25;;;;;;;;;;5133882;27;20456;-65
2021/05/07 07:35:02;;;;;;;1.15;0.20;;;;;;;;;;5135415;27;20089;-65
2021/05/07 07:37:29;;;;;;;0.47;0.20;;;;;;;;;;5134063;27;20043;-65
2021/05/07 07:39:55;;;;;;;0.55;0.25;;;;;;;;;;5134362;27;20495;-66
2021/05/07 07:42:21;;;;;;;0.20;0.13;;;;;;;;;;5132637;27;20051;-65
2021/05/07 07:44:47;;;;;;;0.45;0.17;;;;;;;;;;5133661;27;20051;-66
2021/05/07 07:47:13;;;;;;;2.00;0.10;;;;;;;;;;5129811;27;20059;-65
2021/05/07 07:49:39;;;;;;;0.08;0.05;;;;;;;;;;5131267;27;20047;-65
2021/05/07 07:52:07;;;;;;;0.52;0.30;;;;;;;;;;5131119;27;20437;-65
2021/05/07 07:54:34;;;;;;;1.15;0.10;;;;;;;;;;5133174;27;20047;-66
2021/05/07 07:57:00;;;;;;;0.40;0.15;;;;;;;;;;5134347;27;20054;-66
2021/05/07 07:59:26;;;;;;;0.08;0.08;;;;;;;;;;5133458;27;20039;-67
2021/05/07 08:01:52;;;;;;;1.13;0.17;;;;;;;;;;5135108;27;20078;-65
2021/05/07 08:04:18;;;;;;;0.13;0.10;;;;;;;;;;5136498;27;20054;-65
2021/05/07 08:06:44;;;;;;;0.13;0.10;;;;;;;;;;5134435;27;20047;-66
2021/05/07 08:09:10;;;;;;;0.20;0.20;;;;;;;;;;5134319;27;20043;-68
2021/05/07 08:11:37;;;;;;;0.20;0.20;;;;;;;;;;5133416;27;20469;-67
2021/05/07 08:14:04;;;;;;;1.23;0.30;;;;;;;;;;5135711;27;20395;-65
2021/05/07 08:16:30;;;;;;;0.20;0.20;;;;;;;;;;5135050;27;20043;-67
2021/05/07 08:18:56;;;;;;;0.22;0.20;;;;;;;;;;5138208;27;20046;-67
2021/05/07 08:21:24;;;;;;;0.52;0.40;;;;;;;;;;5134938;27;20043;-68
2021/05/07 08:23:50;;;;;;;0.82;0.50;;;;;;;;;;5135236;27;20047;-66
2021/05/07 08:26:16;;;;;;;1.48;0.40;;;;;;;;;;5130437;27;20042;-66
2021/05/07 08:28:43;;;;;;;0.65;0.40;;;;;;;;;;5134381;27;20092;-67
2021/05/07 08:31:09;;;;;;;1.67;0.25;;;;;;;;;;5139715;27;20448;-66
2021/05/07 08:33:35;;;;;;;1.17;0.30;;;;;;;;;;5136195;27;20047;-66
2021/05/07 08:36:01;;;;;;;1.08;0.40;;;;;;;;;;5135218;27;20491;-65
2021/05/07 08:38:27;;;;;;;1.05;0.55;;;;;;;;;;5135143;28;20073;-67
2021/05/07 08:40:53;;;;;;;1.90;0.63;;;;;;;;;;5135524;27;20047;-68
2021/05/07 08:43:19;;;;;;;1.25;0.43;;;;;;;;;;5136703;28;20051;-67
2021/05/07 08:45:46;;;;;;;1.95;0.70;;;;;;;;;;5135880;27;20082;-67
2021/05/07 08:48:13;;;;;;;0.45;0.40;;;;;;;;;;5132959;28;20123;-67
2021/05/07 08:50:39;;;;;;;0.93;0.40;;;;;;;;;;5125925;28;20043;-66
2021/05/07 08:53:05;;;;;;;1.50;0.55;;;;;;;;;;5134113;28;20054;-66
2021/05/07 08:55:31;;;;;;;0.35;0.35;;;;;;;;;;5135796;27;20054;-68
2021/05/07 08:57:57;;;;;;;0.80;0.40;;;;;;;;;;5131881;28;20047;-65
2021/05/07 09:00:23;;;;;;;0.85;0.70;;;;;;;;;;5134263;28;20096;-66
2021/05/07 09:02:50;;;;;;;0.65;0.45;;;;;;;;;;5134643;27;20134;-65
2021/05/07 09:05:30;;;;;;;0.77;0.57;;;;;;;;;;5133016;28;20043;-65
2021/05/07 09:07:56;;;;;;;1.13;0.60;;;;;;;;;;5133272;28;20047;-65
2021/05/07 09:10:31;;;;;;;0.75;0.60;;;;;;;;;;5133962;28;20043;-65
2021/05/07 09:12:57;;;;;;;0.65;0.50;;;;;;;;;;5132966;28;20031;-66
2021/05/07 09:15:23;;;;;;;1.10;0.70;;;;;;;;;;5137741;27;20050;-67
2021/05/07 09:18:00;;;;;;;1.02;0.68;;;;;;;;;;5134500;28;20535;-67
2021/05/07 09:20:35;;;;;;;1.20;0.65;;;;;;;;;;5132832;28;20134;-67
2021/05/07 09:23:02;;;;;;;0.75;0.55;;;;;;;;;;5133668;28;20057;-68
2021/05/07 09:25:28;;;;;;;1.80;0.90;;;;;;;;;;5133330;28;20047;-66
2021/05/07 09:27:54;;;;;;;0.82;0.75;;;;;;;;;;5133998;27;20067;-66
2021/05/07 09:30:25;;;;;;;1.60;0.80;;;;;;;;;;5131827;27;20035;-66
2021/05/07 09:32:53;;;;;;;1.10;0.80;;;;;;;;;;5133203;28;20054;-66
2021/05/07 09:35:20;;;;;;;1.15;0.75;;;;;;;;;;5134043;27;20047;-66
2021/05/07 09:37:46;;;;;;;1.58;1.10;;;;;;;;;;5135853;27;20051;-67
2021/05/07 09:40:17;;;;;;;1.30;1.08;;;;;;;;;;5134256;28;20074;-66
2021/05/07 09:42:44;;;;;;;2.80;1.30;;;;;;;;;;5135353;27;20043;-66
2021/05/07 09:45:21;;;;;;;1.80;1.17;;;;;;;;;;5139499;27;20055;-67
2021/05/07 09:47:48;;;;;;;1.75;1.33;;;;;;;;;;5138425;27;20054;-68
2021/05/07 09:50:16;;;;;;;2.70;1.83;;;;;;;;;;5134661;27;20055;-67
2021/05/07 09:52:44;;;;;;;2.75;2.00;;;;;;;;;;5137560;27;20096;-66
2021/05/07 09:55:11;;;;;;;2.40;1.80;;;;;;;;;;5137541;27;20051;-68
2021/05/07 09:57:37;;;;;;;3.08;2.17;;;;;;;;;;5138796;27;20045;-68
2021/05/07 10:00:05;;;;;;;3.30;2.30;;;;;;;;;;5138657;27;20047;-67
2021/05/07 10:02:32;;;;;;;3.53;2.85;;;;;;;;;;5137114;27;20471;-66
2021/05/07 10:04:58;;;;;;;3.92;2.60;;;;;;;;;;5137166;27;20047;-67
2021/05/07 10:07:27;;;;;;;3.38;2.60;;;;;;;;;;5145178;27;20054;-67
2021/05/07 10:10:04;;;;;;;4.57;2.90;;;;;;;;;;5137550;27;20419;-68
2021/05/07 10:12:31;;;;;;;4.75;3.60;;;;;;;;;;5139593;27;20059;-66
2021/05/07 10:14:57;;;;;;;8.25;3.58;;;;;;;;;;5138350;27;20149;-66
2021/05/07 10:17:23;;;;;;;6.25;4.53;;;;;;;;;;5138682;27;20039;-67
2021/05/07 10:19:50;;;;;;;4.90;3.40;;;;;;;;;;5140799;27;20738;-68
2021/05/07 10:22:18;;;;;;;4.60;3.35;;;;;;;;;;5139481;27;20467;-68
2021/05/07 10:24:44;;;;;;;5.35;3.88;;;;;;;;;;5139511;27;20047;-65
2021/05/07 10:27:15;;;;;;;5.03;4.03;;;;;;;;;;5138534;27;20130;-65
2021/05/07 10:29:52;;;;;;;4.65;3.50;;;;;;;;;;5137783;27;20039;-66
2021/05/07 10:32:30;;;;;;;4.93;3.78;;;;;;;;;;5131750;27;20479;-66
2021/05/07 10:34:56;;;;;;;5.05;3.17;;;;;;;;;;5136409;27;20046;-65
2021/05/07 10:37:22;;;;;;;5.47;3.75;;;;;;;;;;5136316;27;20115;-67
2021/05/07 10:39:53;;;;;;;6.57;4.25;;;;;;;;;;5137161;27;20066;-66
2021/05/07 10:42:20;;;;;;;6.13;4.20;;;;;;;;;;5135069;27;20054;-66
2021/05/07 10:44:46;;;;;;;4.60;3.42;;;;;;;;;;5134976;27;20084;-66
2021/05/07 10:47:14;;;;;;;4.97;3.90;;;;;;;;;;5138948;27;20062;-66
2021/05/07 10:49:41;;;;;;;4.30;3.53;;;;;;;;;;5134504;27;20047;-68
2021/05/07 10:52:08;;;;;;;4.82;3.70;;;;;;;;;;5133918;27;20464;-67
2021/05/07 10:54:35;;;;;;;6.45;3.90;;;;;;;;;;5133699;27;20076;-67
2021/05/07 10:57:02;;;;;;;6.03;4.20;;;;;;;;;;5135687;27;20054;-67
2021/05/07 10:59:31;;;;;;;4.10;3.53;;;;;;;;;;5142965;27;21616;-69
2021/05/07 11:01:58;;;;;;;6.53;4.88;;;;;;;;;;5135645;27;20138;-66
2021/05/07 11:04:25;;;;;;;6.82;4.15;;;;;;;;;;5135755;27;20050;-66
2021/05/07 11:06:59;;;;;;;5.57;3.90;;;;;;;;;;5135421;27;20073;-67
2021/05/07 11:09:27;;;;;;;7.10;4.60;;;;;;;;;;5135331;27;20043;-68
2021/05/07 11:11:55;;;;;;;7.28;4.80;;;;;;;;;;5135402;27;20055;-67
2021/05/07 11:14:23;;;;;;;5.80;3.85;;;;;;;;;;5134975;27;20039;-70
2021/05/07 11:16:50;;;;;;;5.43;4.13;;;;;;;;;;5134356;27;20039;-65
2021/05/07 11:19:23;;;;;;;5.85;4.05;;;;;;;;;;5132137;27;20043;-71
2021/05/07 11:21:54;;;;;;;7.25;4.22;;;;;;;;;;5135323;27;20450;-68
2021/05/07 11:24:22;;;;;;;5.38;4.53;;;;;;;;;;5134981;27;20055;-67
2021/05/07 11:26:48;;;;;;;6.22;4.47;;;;;;;;;;5131325;27;20138;-70
2021/05/07 11:29:26;;;;;;;5.53;4.07;;;;;;;;;;5135630;27;20087;-71
2021/05/07 11:31:52;;;;;;;4.43;3.75;;;;;;;;;;5135607;27;20074;-68
2021/05/07 11:34:24;;;;;;;5.60;4.55;;;;;;;;;;5135251;27;20527;-68
2021/05/07 11:36:57;;;;;;;6.38;4.50;;;;;;;;;;5131195;27;20047;-70
2021/05/07 11:39:23;;;;;;;6.68;4.25;;;;;;;;;;5132196;27;20473;-66
2021/05/07 11:41:49;;;;;;;4.97;3.65;;;;;;;;;;5132329;27;20051;-66
2021/05/07 11:44:15;;;;;;;9.25;5.32;;;;;;;;;;5134174;27;20039;-66
2021/05/07 11:46:42;;;;;;;6.78;4.13;;;;;;;;;;5134414;27;20043;-66
2021/05/07 11:49:07;;;;;;;5.55;3.95;;;;;;;;;;5128733;27;20047;-68
2021/05/07 11:51:34;;;;;;;4.70;3.35;;;;;;;;;;5135729;27;21210;-67
2021/05/07 11:54:00;;;;;;;5.80;4.13;;;;;;;;;;5129462;27;20396;-68
2021/05/07 11:56:28;;;;;;;3.97;3.13;;;;;;;;;;5133620;27;20392;-67
2021/05/07 11:58:54;;;;;;;4.15;3.63;;;;;;;;;;5138182;27;20155;-67
2021/05/07 12:01:24;;;;;;;6.30;3.63;;;;;;;;;;5135578;27;20130;-67
2021/05/07 12:03:53;;;;;;;4.78;3.00;;;;;;;;;;5136073;27;20047;-67
2021/05/07 12:06:20;;;;;;;5.60;3.47;;;;;;;;;;5134923;27;20049;-67
2021/05/07 12:08:47;;;;;;;3.95;3.10;;;;;;;;;;5133442;27;20053;-67
2021/05/07 12:11:13;;;;;;;4.95;3.40;;;;;;;;;;5136574;27;20051;-67
2021/05/07 12:13:39;;;;;;;3.78;3.05;;;;;;;;;;5134610;27;20039;-66
2021/05/07 12:16:06;;;;;;;3.22;2.65;;;;;;;;;;5134914;27;20043;-69
2021/05/07 12:18:33;;;;;;;3.90;2.78;;;;;;;;;;5134218;27;20224;-66
2021/05/07 12:21:01;;;;;;;4.65;2.55;;;;;;;;;;5132318;27;20054;-68
2021/05/07 12:23:40;;;;;;;3.80;2.90;;;;;;;;;;5133472;27;20057;-68
2021/05/07 12:26:06;;;;;;;4.47;2.80;;;;;;;;;;5132156;27;20058;-67
2021/05/07 12:28:32;;;;;;;4.65;2.60;;;;;;;;;;5134547;27;20047;-69
2021/05/07 12:30:59;;;;;;;4.40;3.15;;;;;;;;;;5134401;27;20198;-70
2021/05/07 12:33:28;;;;;;;3.33;2.47;;;;;;;;;;5132527;27;20054;-69
2021/05/07 12:35:55;;;;;;;2.90;2.58;;;;;;;;;;5132899;27;20089;-69
2021/05/07 12:38:28;;;;;;;3.67;2.80;;;;;;;;;;5135518;28;20392;-68
2021/05/07 12:40:56;;;;;;;3.65;2.80;;;;;;;;;;5132925;28;20157;-69
2021/05/07 12:43:22;;;;;;;4.90;2.95;;;;;;;;;;5132042;28;20043;-68
2021/05/07 12:45:49;;;;;;;4.45;3.10;;;;;;;;;;5132512;28;20047;-68
2021/05/07 12:48:15;;;;;;;4.90;2.90;;;;;;;;;;5129794;28;20055;-68
2021/05/07 12:50:42;;;;;;;3.85;2.72;;;;;;;;;;5132582;28;20044;-69
2021/05/07 12:53:11;;;;;;;4.45;2.58;;;;;;;;;;5131764;27;20039;-67
2021/05/07 12:55:39;;;;;;;4.13;2.30;;;;;;;;;;5132307;28;20043;-68
2021/05/07 12:58:05;;;;;;;4.28;2.38;;;;;;;;;;5132298;28;20054;-68
2021/05/07 13:00:31;;;;;;;4.90;2.92;;;;;;;;;;5132906;27;20040;-68
2021/05/07 13:02:58;;;;;;;5.05;2.63;;;;;;;;;;5136006;27;20126;-66
2021/05/07 13:05:24;;;;;;;3.47;2.53;;;;;;;;;;5132529;28;20043;-68
2021/05/07 13:07:50;;;;;;;3.80;2.70;;;;;;;;;;5132210;28;20474;-68
2021/05/07 13:10:16;;;;;;;5.15;2.90;;;;;;;;;;5132333;28;20563;-69
2021/05/07 13:12:43;;;;;;;3.55;2.65;;;;;;;;;;5131685;27;20047;-68
2021/05/07 13:15:10;;;;;;;3.90;2.78;;;;;;;;;;5133946;27;20071;-67
2021/05/07 13:17:36;;;;;;;5.53;2.40;;;;;;;;;;5136106;27;20531;-70
2021/05/07 13:20:03;;;;;;;4.78;2.42;;;;;;;;;;5135923;27;20036;-69
2021/05/07 13:22:29;;;;;;;3.15;2.45;;;;;;;;;;5136250;27;20051;-69
2021/05/07 13:24:55;;;;;;;5.85;2.72;;;;;;;;;;5136069;27;20084;-70
2021/05/07 13:27:22;;;;;;;5.00;2.70;;;;;;;;;;5135611;27;20043;-67
2021/05/07 13:29:48;;;;;;;6.22;2.05;;;;;;;;;;5135333;27;20367;-68
2021/05/07 13:32:17;;;;;;;4.18;2.40;;;;;;;;;;5135785;27;20047;-69
2021/05/07 13:34:46;;;;;;;4.72;2.67;;;;;;;;;;5133348;27;20134;-68
2021/05/07 13:37:12;;;;;;;4.10;2.40;;;;;;;;;;5136767;27;20047;-68
2021/05/07 13:39:38;;;;;;;5.40;2.50;;;;;;;;;;5145411;27;20061;-68
2021/05/07 13:42:04;;;;;;;3.42;2.10;;;;;;;;;;5143911;27;20047;-68
2021/05/07 13:44:30;;;;;;;3.25;2.05;;;;;;;;;;5136791;27;20055;-68
2021/05/07 13:46:57;;;;;;;3.40;2.25;;;;;;;;;;5136843;27;20086;-68
2021/05/07 13:49:23;;;;;;;15.60;2.85;;;;;;;;;;5136975;27;20422;-68
2021/05/07 13:51:49;;;;;;;5.65;2.17;;;;;;;;;;5135504;27;20051;-68
2021/05/07 13:54:15;;;;;;;2.60;1.98;;;;;;;;;;5135870;27;20517;-68
2021/05/07 13:56:41;;;;;;;3.33;2.00;;;;;;;;;;5135935;27;20089;-68
2021/05/07 13:59:07;;;;;;;3.05;1.60;;;;;;;;;;5137561;27;20483;-68
2021/05/07 14:01:34;;;;;;;3.42;1.88;;;;;;;;;;5134153;27;20047;-67
2021/05/07 14:04:01;;;;;;;3.88;1.52;;;;;;;;;;5135382;27;20073;-68
2021/05/07 14:06:27;;;;;;;3.63;1.70;;;;;;;;;;5134781;27;20051;-67
2021/05/07 14:08:53;;;;;;;3.92;1.83;;;;;;;;;;5134563;27;20061;-67
2021/05/07 14:11:19;;;;;;;2.72;1.90;;;;;;;;;;5134704;27;20047;-68
2021/05/07 14:13:45;;;;;;;4.22;1.65;;;;;;;;;;5136617;27;20054;-67
2021/05/07 14:16:10;;;;;;;2.97;1.85;;;;;;;;;;5133171;27;20050;-67
2021/05/07 14:18:36;;;;;;;2.38;1.60;;;;;;;;;;5135726;27;20464;-68
2021/05/07 14:21:04;;;;;;;2.65;1.60;;;;;;;;;;5132541;27;20047;-68
2021/05/07 14:23:30;;;;;;;2.95;1.88;;;;;;;;;;5136710;27;20042;-69
2021/05/07 14:25:57;;;;;;;3.22;1.48;;;;;;;;;;5146077;27;20129;-69
2021/05/07 14:28:23;;;;;;;3.38;1.80;;;;;;;;;;5131530;27;20051;-68
2021/05/07 14:30:49;;;;;;;3.00;1.80;;;;;;;;;;5133097;27;20085;-67
2021/05/07 14:33:15;;;;;;;2.65;1.77;;;;;;;;;;5132465;27;20043;-68
2021/05/07 14:35:41;;;;;;;2.85;1.80;;;;;;;;;;5140253;27;20050;-67
2021/05/07 14:38:08;;;;;;;7.80;2.30;;;;;;;;;;5136214;27;20730;-67
2021/05/07 14:40:34;;;;;;;4.25;1.80;;;;;;;;;;5136021;27;20070;-68